Terminal Aerodrome Forecast
Issued by NWS

Home | Current Version | Previous Version | Text Only | Print | Product List | Glossary On
Versions: 1 2 3 4 5 6 7 8 9 10 11 12 13 14 15 16 17 18 19 20 21 22 23 24
979
FTUS44 KLZK 291016 AAC
TAFHRO
TAF AMD
KHRO 291016Z 2910/3006 02008KT P6SM -SHRA VCTS SCT008 OVC025CB
      WS020/18040KT
      TEMPO 2910/2914 4SM -TSRA BR OVC010CB
     FM291400 15008G15KT P6SM -SHRA VCTS BKN015 OVC035CB
      WS020/18040KT
     FM291600 16012G22KT P6SM -SHRA VCTS BKN015CB OVC050=

USA.gov is the U.S. government's official web portal to all federal, state and local government web resources and services.